sensor_id;sensor_type;location;lat;lon;timestamp;pressure;altitude;pressure_sealevel;temperature;humidity
61039;BME280;46919;45.816;3.104;2023-08-08T00:01:21;98118.41;;;14.04;58.16
61039;BME280;46919;45.816;3.104;2023-08-08T00:03:46;98119.72;;;14.02;58.19
61039;BME280;46919;45.816;3.104;2023-08-08T00:06:11;98113.94;;;13.98;58.02
61039;BME280;46919;45.816;3.104;2023-08-08T00:08:37;98116.41;;;14.00;58.20
61039;BME280;46919;45.816;3.104;2023-08-08T00:11:02;98116.09;;;13.96;58.12
61039;BME280;46919;45.816;3.104;2023-08-08T00:13:28;98115.16;;;13.90;58.36
61039;BME280;46919;45.816;3.104;2023-08-08T00:15:53;98115.00;;;13.97;58.00
61039;BME280;46919;45.816;3.104;2023-08-08T00:18:19;98114.53;;;14.00;58.04
61039;BME280;46919;45.816;3.104;2023-08-08T00:20:44;98120.50;;;14.14;57.62
61039;BME280;46919;45.816;3.104;2023-08-08T00:23:10;98118.25;;;14.23;57.15
61039;BME280;46919;45.816;3.104;2023-08-08T00:25:36;98116.34;;;14.23;57.29
61039;BME280;46919;45.816;3.104;2023-08-08T00:28:02;98115.28;;;14.24;57.71
61039;BME280;46919;45.816;3.104;2023-08-08T00:30:28;98120.22;;;14.27;57.35
61039;BME280;46919;45.816;3.104;2023-08-08T00:32:53;98128.19;;;14.17;57.72
61039;BME280;46919;45.816;3.104;2023-08-08T00:35:18;98115.16;;;14.19;57.43
61039;BME280;46919;45.816;3.104;2023-08-08T00:37:44;98116.44;;;14.28;57.15
61039;BME280;46919;45.816;3.104;2023-08-08T00:40:10;98112.50;;;14.36;56.74
61039;BME280;46919;45.816;3.104;2023-08-08T00:42:35;98108.72;;;14.37;56.88
61039;BME280;46919;45.816;3.104;2023-08-08T00:45:00;98105.47;;;14.23;57.12
61039;BME280;46919;45.816;3.104;2023-08-08T00:47:32;98107.25;;;14.18;57.38
61039;BME280;46919;45.816;3.104;2023-08-08T00:50:00;98101.72;;;14.12;57.62
61039;BME280;46919;45.816;3.104;2023-08-08T00:52:26;98106.44;;;14.17;57.87
61039;BME280;46919;45.816;3.104;2023-08-08T00:54:52;98105.66;;;14.05;58.36
61039;BME280;46919;45.816;3.104;2023-08-08T00:57:18;98101.66;;;13.95;58.90
61039;BME280;46919;45.816;3.104;2023-08-08T00:59:44;98100.28;;;13.81;59.36
61039;BME280;46919;45.816;3.104;2023-08-08T01:02:11;98091.13;;;13.70;60.04
61039;BME280;46919;45.816;3.104;2023-08-08T01:04:36;98089.38;;;13.64;60.20
61039;BME280;46919;45.816;3.104;2023-08-08T01:12:39;98089.66;;;13.39;61.67
61039;BME280;46919;45.816;3.104;2023-08-08T01:15:06;98086.31;;;13.37;61.46
61039;BME280;46919;45.816;3.104;2023-08-08T01:17:35;98082.19;;;13.46;61.10
61039;BME280;46919;45.816;3.104;2023-08-08T01:20:03;98078.19;;;13.37;61.18
61039;BME280;46919;45.816;3.104;2023-08-08T01:22:36;98074.88;;;13.35;61.40
61039;BME280;46919;45.816;3.104;2023-08-08T01:25:04;98066.75;;;13.23;61.66
61039;BME280;46919;45.816;3.104;2023-08-08T01:27:30;98068.13;;;13.26;61.79
61039;BME280;46919;45.816;3.104;2023-08-08T01:29:55;98072.53;;;13.15;62.19
61039;BME280;46919;45.816;3.104;2023-08-08T01:32:21;98067.22;;;13.20;62.19
61039;BME280;46919;45.816;3.104;2023-08-08T01:34:47;98069.47;;;12.99;62.65
61039;BME280;46919;45.816;3.104;2023-08-08T01:37:36;98074.06;;;12.87;64.02
61039;BME280;46919;45.816;3.104;2023-08-08T01:40:06;98076.16;;;12.73;63.70
61039;BME280;46919;45.816;3.104;2023-08-08T01:42:31;98074.03;;;12.63;64.14
61039;BME280;46919;45.816;3.104;2023-08-08T01:44:58;98063.41;;;12.50;64.55
61039;BME280;46919;45.816;3.104;2023-08-08T01:47:24;98075.06;;;12.50;64.64
61039;BME280;46919;45.816;3.104;2023-08-08T01:49:49;98075.81;;;12.58;64.78
61039;BME280;46919;45.816;3.104;2023-08-08T01:52:15;98069.88;;;12.61;64.54
61039;BME280;46919;45.816;3.104;2023-08-08T01:54:41;98069.75;;;12.56;65.01
61039;BME280;46919;45.816;3.104;2023-08-08T01:57:08;98074.59;;;12.54;64.99
61039;BME280;46919;45.816;3.104;2023-08-08T01:59:33;98069.66;;;12.50;65.14
61039;BME280;46919;45.816;3.104;2023-08-08T02:01:59;98069.88;;;12.37;65.60
61039;BME280;46919;45.816;3.104;2023-08-08T02:04:24;98067.09;;;12.25;65.75
61039;BME280;46919;45.816;3.104;2023-08-08T02:06:49;98073.66;;;12.18;66.07
61039;BME280;46919;45.816;3.104;2023-08-08T02:09:15;98076.03;;;12.14;66.46
61039;BME280;46919;45.816;3.104;2023-08-08T02:11:41;98078.84;;;12.07;66.35
61039;BME280;46919;45.816;3.104;2023-08-08T02:14:06;98074.22;;;12.08;66.89
61039;BME280;46919;45.816;3.104;2023-08-08T02:16:32;98078.44;;;12.04;66.94
61039;BME280;46919;45.816;3.104;2023-08-08T02:18:57;98071.72;;;11.94;67.16
61039;BME280;46919;45.816;3.104;2023-08-08T02:21:23;98066.09;;;11.89;67.15
61039;BME280;46919;45.816;3.104;2023-08-08T02:23:48;98066.97;;;11.90;67.17
61039;BME280;46919;45.816;3.104;2023-08-08T02:26:13;98066.81;;;11.85;67.94
61039;BME280;46919;45.816;3.104;2023-08-08T02:28:39;98063.03;;;11.86;67.96
61039;BME280;46919;45.816;3.104;2023-08-08T02:31:04;98070.72;;;11.89;67.89
61039;BME280;46919;45.816;3.104;2023-08-08T02:33:30;98068.91;;;11.83;68.02
61039;BME280;46919;45.816;3.104;2023-08-08T02:35:55;98072.84;;;11.68;68.78
61039;BME280;46919;45.816;3.104;2023-08-08T02:38:21;98074.19;;;11.59;68.77
61039;BME280;46919;45.816;3.104;2023-08-08T02:40:46;98076.22;;;11.64;68.85
61039;BME280;46919;45.816;3.104;2023-08-08T02:43:12;98082.63;;;11.69;68.71
61039;BME280;46919;45.816;3.104;2023-08-08T02:45:37;98085.16;;;11.83;68.90
61039;BME280;46919;45.816;3.104;2023-08-08T02:48:04;98076.34;;;11.87;68.44
61039;BME280;46919;45.816;3.104;2023-08-08T02:50:30;98077.81;;;11.71;68.69
61039;BME280;46919;45.816;3.104;2023-08-08T02:52:56;98072.56;;;11.58;69.68
61039;BME280;46919;45.816;3.104;2023-08-08T02:55:21;98068.75;;;11.47;69.82
61039;BME280;46919;45.816;3.104;2023-08-08T02:57:46;98079.47;;;11.35;70.37
61039;BME280;46919;45.816;3.104;2023-08-08T03:00:12;98080.00;;;11.26;70.47
61039;BME280;46919;45.816;3.104;2023-08-08T03:02:38;98085.47;;;11.19;71.09
61039;BME280;46919;45.816;3.104;2023-08-08T03:05:04;98084.72;;;11.12;71.16
61039;BME280;46919;45.816;3.104;2023-08-08T03:07:29;98090.59;;;11.09;71.67
61039;BME280;46919;45.816;3.104;2023-08-08T03:09:55;98096.03;;;11.02;72.00
61039;BME280;46919;45.816;3.104;2023-08-08T03:12:20;98093.13;;;11.03;72.05
61039;BME280;46919;45.816;3.104;2023-08-08T03:14:46;98094.56;;;11.06;71.65
61039;BME280;46919;45.816;3.104;2023-08-08T03:17:11;98085.66;;;10.99;72.16
61039;BME280;46919;45.816;3.104;2023-08-08T03:19:37;98095.75;;;10.92;72.21
61039;BME280;46919;45.816;3.104;2023-08-08T03:22:02;98073.72;;;10.88;72.64
61039;BME280;46919;45.816;3.104;2023-08-08T03:24:28;98071.56;;;10.97;72.40
61039;BME280;46919;45.816;3.104;2023-08-08T03:26:53;98071.78;;;10.95;72.25
61039;BME280;46919;45.816;3.104;2023-08-08T03:29:19;98082.50;;;10.83;72.76
61039;BME280;46919;45.816;3.104;2023-08-08T03:31:44;98083.44;;;10.71;73.25
61039;BME280;46919;45.816;3.104;2023-08-08T03:34:09;98080.78;;;10.64;73.39
61039;BME280;46919;45.816;3.104;2023-08-08T03:36:35;98081.28;;;10.54;74.21
61039;BME280;46919;45.816;3.104;2023-08-08T03:39:00;98086.09;;;10.52;74.33
61039;BME280;46919;45.816;3.104;2023-08-08T03:41:26;98080.69;;;10.52;74.56
61039;BME280;46919;45.816;3.104;2023-08-08T03:43:51;98085.44;;;10.57;74.24
61039;BME280;46919;45.816;3.104;2023-08-08T03:46:16;98085.69;;;10.48;74.60
61039;BME280;46919;45.816;3.104;2023-08-08T03:48:42;98090.88;;;10.50;74.61
61039;BME280;46919;45.816;3.104;2023-08-08T03:51:07;98091.91;;;10.49;74.81
61039;BME280;46919;45.816;3.104;2023-08-08T03:53:33;98094.41;;;10.50;74.93
61039;BME280;46919;45.816;3.104;2023-08-08T03:55:58;98094.03;;;10.47;75.25
61039;BME280;46919;45.816;3.104;2023-08-08T03:58:24;98086.16;;;10.39;75.48
61039;BME280;46919;45.816;3.104;2023-08-08T04:00:49;98089.75;;;10.32;75.58
61039;BME280;46919;45.816;3.104;2023-08-08T04:03:16;98089.38;;;10.22;76.01
61039;BME280;46919;45.816;3.104;2023-08-08T04:05:44;98088.34;;;10.23;76.35
61039;BME280;46919;45.816;3.104;2023-08-08T04:08:12;98086.66;;;10.22;75.96
61039;BME280;46919;45.816;3.104;2023-08-08T04:10:37;98092.50;;;10.19;76.34
61039;BME280;46919;45.816;3.104;2023-08-08T04:13:03;98092.13;;;10.15;76.57
61039;BME280;46919;45.816;3.104;2023-08-08T04:15:28;98085.91;;;10.15;76.56
61039;BME280;46919;45.816;3.104;2023-08-08T04:17:54;98092.94;;;10.16;76.31
61039;BME280;46919;45.816;3.104;2023-08-08T04:20:19;98088.81;;;10.13;76.51
61039;BME280;46919;45.816;3.104;2023-08-08T04:22:45;98086.53;;;10.10;76.54
61039;BME280;46919;45.816;3.104;2023-08-08T04:25:10;98091.09;;;10.10;77.09
61039;BME280;46919;45.816;3.104;2023-08-08T04:27:36;98089.03;;;10.05;77.59
61039;BME280;46919;45.816;3.104;2023-08-08T04:30:01;98090.09;;;10.04;77.33
61039;BME280;46919;45.816;3.104;2023-08-08T04:32:28;98094.50;;;9.98;77.80
61039;BME280;46919;45.816;3.104;2023-08-08T04:34:53;98088.47;;;9.96;77.71
61039;BME280;46919;45.816;3.104;2023-08-08T04:37:19;98087.22;;;9.99;77.90
61039;BME280;46919;45.816;3.104;2023-08-08T04:39:44;98094.28;;;10.00;77.72
61039;BME280;46919;45.816;3.104;2023-08-08T04:42:09;98098.22;;;9.97;77.73
61039;BME280;46919;45.816;3.104;2023-08-08T04:44:35;98094.66;;;10.04;77.61
61039;BME280;46919;45.816;3.104;2023-08-08T04:47:00;98088.66;;;10.02;77.93
61039;BME280;46919;45.816;3.104;2023-08-08T04:49:25;98096.38;;;9.98;78.18
61039;BME280;46919;45.816;3.104;2023-08-08T04:51:51;98096.59;;;9.96;78.76
61039;BME280;46919;45.816;3.104;2023-08-08T04:54:16;98098.44;;;10.03;78.64
61039;BME280;46919;45.816;3.104;2023-08-08T04:56:42;98101.94;;;10.03;78.66
61039;BME280;46919;45.816;3.104;2023-08-08T04:59:07;98105.44;;;10.10;78.35
61039;BME280;46919;45.816;3.104;2023-08-08T05:01:32;98102.69;;;10.17;78.17
61039;BME280;46919;45.816;3.104;2023-08-08T05:03:58;98103.31;;;10.19;78.34
61039;BME280;46919;45.816;3.104;2023-08-08T05:06:23;98110.81;;;10.17;78.51
61039;BME280;46919;45.816;3.104;2023-08-08T05:08:50;98113.63;;;10.29;78.53
61039;BME280;46919;45.816;3.104;2023-08-08T05:11:16;98114.47;;;10.29;78.35
61039;BME280;46919;45.816;3.104;2023-08-08T05:13:41;98107.91;;;10.50;78.39
61039;BME280;46919;45.816;3.104;2023-08-08T05:16:08;98117.66;;;10.83;76.94
61039;BME280;46919;45.816;3.104;2023-08-08T05:18:33;98116.94;;;10.95;76.51
61039;BME280;46919;45.816;3.104;2023-08-08T05:20:59;98130.16;;;10.78;76.72
61039;BME280;46919;45.816;3.104;2023-08-08T05:23:24;98121.53;;;10.62;77.34
61039;BME280;46919;45.816;3.104;2023-08-08T05:25:50;98123.41;;;10.62;78.00
61039;BME280;46919;45.816;3.104;2023-08-08T05:28:15;98123.19;;;10.63;78.35
61039;BME280;46919;45.816;3.104;2023-08-08T05:30:41;98122.13;;;10.71;78.13
61039;BME280;46919;45.816;3.104;2023-08-08T05:33:06;98127.03;;;10.81;77.92
61039;BME280;46919;45.816;3.104;2023-08-08T05:35:31;98121.84;;;10.79;77.82
61039;BME280;46919;45.816;3.104;2023-08-08T05:37:57;98117.03;;;10.81;77.74
61039;BME280;46919;45.816;3.104;2023-08-08T05:40:22;98122.72;;;10.98;78.02
61039;BME280;46919;45.816;3.104;2023-08-08T05:42:48;98114.19;;;11.20;76.66
61039;BME280;46919;45.816;3.104;2023-08-08T05:45:13;98114.06;;;11.33;76.81
61039;BME280;46919;45.816;3.104;2023-08-08T05:47:39;98118.94;;;11.24;76.04
61039;BME280;46919;45.816;3.104;2023-08-08T05:50:05;98123.72;;;11.22;75.55
61039;BME280;46919;45.816;3.104;2023-08-08T05:52:31;98121.44;;;11.26;75.72
61039;BME280;46919;45.816;3.104;2023-08-08T05:54:56;98119.03;;;11.36;75.74
61039;BME280;46919;45.816;3.104;2023-08-08T05:57:24;98122.63;;;11.49;74.74
61039;BME280;46919;45.816;3.104;2023-08-08T05:59:49;98130.91;;;11.54;74.62
61039;BME280;46919;45.816;3.104;2023-08-08T06:02:15;98133.44;;;11.67;74.29
61039;BME280;46919;45.816;3.104;2023-08-08T06:04:41;98135.44;;;11.78;73.85
61039;BME280;46919;45.816;3.104;2023-08-08T06:07:06;98137.91;;;11.80;73.31
61039;BME280;46919;45.816;3.104;2023-08-08T06:09:31;98140.00;;;11.78;72.86
61039;BME280;46919;45.816;3.104;2023-08-08T06:11:57;98143.09;;;11.82;72.67
61039;BME280;46919;45.816;3.104;2023-08-08T06:14:23;98148.44;;;11.88;72.43
61039;BME280;46919;45.816;3.104;2023-08-08T06:16:48;98143.31;;;11.99;72.73
61039;BME280;46919;45.816;3.104;2023-08-08T06:19:14;98149.41;;;12.12;72.16
61039;BME280;46919;45.816;3.104;2023-08-08T06:21:41;98147.13;;;12.28;71.87
61039;BME280;46919;45.816;3.104;2023-08-08T06:24:06;98147.25;;;12.33;71.80
61039;BME280;46919;45.816;3.104;2023-08-08T06:26:32;98145.41;;;12.45;71.85
61039;BME280;46919;45.816;3.104;2023-08-08T06:28:57;98153.56;;;12.45;71.37
61039;BME280;46919;45.816;3.104;2023-08-08T06:31:22;98154.28;;;12.53;70.89
61039;BME280;46919;45.816;3.104;2023-08-08T06:33:48;98151.72;;;12.58;70.80
61039;BME280;46919;45.816;3.104;2023-08-08T06:36:13;98158.19;;;12.68;70.79
61039;BME280;46919;45.816;3.104;2023-08-08T06:38:39;98163.09;;;12.78;70.63
61039;BME280;46919;45.816;3.104;2023-08-08T06:41:04;98157.44;;;12.92;70.41
61039;BME280;46919;45.816;3.104;2023-08-08T06:43:30;98155.69;;;12.97;70.06
61039;BME280;46919;45.816;3.104;2023-08-08T06:45:56;98159.56;;;12.90;69.87
61039;BME280;46919;45.816;3.104;2023-08-08T06:48:21;98154.97;;;12.90;69.69
61039;BME280;46919;45.816;3.104;2023-08-08T06:50:47;98158.50;;;12.91;69.81
61039;BME280;46919;45.816;3.104;2023-08-08T06:53:12;98161.00;;;13.04;69.59
61039;BME280;46919;45.816;3.104;2023-08-08T06:55:38;98162.56;;;13.12;69.16
61039;BME280;46919;45.816;3.104;2023-08-08T06:58:03;98157.22;;;13.29;68.95
61039;BME280;46919;45.816;3.104;2023-08-08T07:00:29;98157.63;;;13.44;68.99
61039;BME280;46919;45.816;3.104;2023-08-08T07:02:55;98159.03;;;13.58;68.51
61039;BME280;46919;45.816;3.104;2023-08-08T07:05:20;98161.59;;;13.65;68.04
61039;BME280;46919;45.816;3.104;2023-08-08T07:07:51;98159.72;;;13.77;67.73
61039;BME280;46919;45.816;3.104;2023-08-08T07:10:18;98152.50;;;13.83;67.28
61039;BME280;46919;45.816;3.104;2023-08-08T07:12:44;98160.28;;;13.91;67.22
61039;BME280;46919;45.816;3.104;2023-08-08T07:15:09;98153.75;;;14.04;67.05
61039;BME280;46919;45.816;3.104;2023-08-08T07:17:35;98155.50;;;14.10;66.53
61039;BME280;46919;45.816;3.104;2023-08-08T07:20:01;98163.72;;;14.27;65.74
61039;BME280;46919;45.816;3.104;2023-08-08T07:22:27;98153.03;;;14.38;65.53
61039;BME280;46919;45.816;3.104;2023-08-08T07:24:52;98153.31;;;14.53;65.08
61039;BME280;46919;45.816;3.104;2023-08-08T07:27:18;98146.53;;;14.67;64.79
61039;BME280;46919;45.816;3.104;2023-08-08T07:29:43;98148.63;;;14.77;64.63
61039;BME280;46919;45.816;3.104;2023-08-08T07:32:09;98138.31;;;14.96;64.13
61039;BME280;46919;45.816;3.104;2023-08-08T07:34:34;98144.84;;;15.12;63.57
61039;BME280;46919;45.816;3.104;2023-08-08T07:37:00;98147.19;;;15.26;62.19
61039;BME280;46919;45.816;3.104;2023-08-08T07:39:25;98139.03;;;15.43;61.67
61039;BME280;46919;45.816;3.104;2023-08-08T07:41:51;98129.16;;;15.58;61.53
61039;BME280;46919;45.816;3.104;2023-08-08T07:44:17;98121.41;;;15.67;61.34
61039;BME280;46919;45.816;3.104;2023-08-08T07:46:42;98131.63;;;15.77;61.11
61039;BME280;46919;45.816;3.104;2023-08-08T07:49:07;98130.38;;;15.85;60.80
61039;BME280;46919;45.816;3.104;2023-08-08T07:51:35;98130.28;;;16.02;59.68
61039;BME280;46919;45.816;3.104;2023-08-08T07:54:00;98132.38;;;16.17;59.35
61039;BME280;46919;45.816;3.104;2023-08-08T07:56:26;98128.38;;;16.24;59.23
61039;BME280;46919;45.816;3.104;2023-08-08T07:58:51;98129.75;;;16.27;59.08
61039;BME280;46919;45.816;3.104;2023-08-08T08:01:17;98123.50;;;16.26;58.76
61039;BME280;46919;45.816;3.104;2023-08-08T08:03:43;98133.06;;;16.29;58.22
61039;BME280;46919;45.816;3.104;2023-08-08T08:06:09;98135.34;;;16.37;57.24
61039;BME280;46919;45.816;3.104;2023-08-08T08:08:34;98135.94;;;16.44;56.64
61039;BME280;46919;45.816;3.104;2023-08-08T08:11:02;98132.16;;;16.45;56.51
61039;BME280;46919;45.816;3.104;2023-08-08T08:13:27;98134.91;;;16.51;55.99
61039;BME280;46919;45.816;3.104;2023-08-08T08:15:53;98132.22;;;16.56;55.48
61039;BME280;46919;45.816;3.104;2023-08-08T08:18:18;98131.28;;;16.67;55.36
61039;BME280;46919;45.816;3.104;2023-08-08T08:20:45;98119.88;;;16.75;54.96
61039;BME280;46919;45.816;3.104;2023-08-08T08:23:10;98124.13;;;16.88;55.21
61039;BME280;46919;45.816;3.104;2023-08-08T08:25:36;98123.16;;;17.05;54.62
61039;BME280;46919;45.816;3.104;2023-08-08T08:28:01;98114.78;;;17.16;54.11
61039;BME280;46919;45.816;3.104;2023-08-08T08:30:27;98117.00;;;17.19;54.11
61039;BME280;46919;45.816;3.104;2023-08-08T08:32:52;98111.34;;;17.36;54.08
61039;BME280;46919;45.816;3.104;2023-08-08T08:35:18;98097.78;;;17.47;53.08
61039;BME280;46919;45.816;3.104;2023-08-08T08:37:44;98091.53;;;17.56;52.96
61039;BME280;46919;45.816;3.104;2023-08-08T08:40:10;98088.56;;;17.68;51.84
61039;BME280;46919;45.816;3.104;2023-08-08T08:42:37;98093.50;;;17.71;51.83
61039;BME280;46919;45.816;3.104;2023-08-08T08:45:04;98087.03;;;17.83;52.39
61039;BME280;46919;45.816;3.104;2023-08-08T08:47:31;98078.06;;;18.03;51.61
61039;BME280;46919;45.816;3.104;2023-08-08T08:49:57;98077.84;;;18.15;51.12
61039;BME280;46919;45.816;3.104;2023-08-08T08:52:23;98088.25;;;18.23;50.54
61039;BME280;46919;45.816;3.104;2023-08-08T08:54:50;98092.09;;;18.27;50.52
61039;BME280;46919;45.816;3.104;2023-08-08T08:57:17;98092.66;;;18.39;50.84
61039;BME280;46919;45.816;3.104;2023-08-08T08:59:42;98108.31;;;18.59;50.09
61039;BME280;46919;45.816;3.104;2023-08-08T09:02:08;98106.13;;;18.61;49.67
61039;BME280;46919;45.816;3.104;2023-08-08T09:04:36;98103.97;;;18.84;50.38
61039;BME280;46919;45.816;3.104;2023-08-08T09:07:02;98095.75;;;18.99;49.11
61039;BME280;46919;45.816;3.104;2023-08-08T09:09:32;98091.09;;;19.00;49.15
61039;BME280;46919;45.816;3.104;2023-08-08T09:11:57;98089.19;;;19.06;49.28
61039;BME280;46919;45.816;3.104;2023-08-08T09:14:25;98080.13;;;19.00;49.10
61039;BME280;46919;45.816;3.104;2023-08-08T09:16:53;98073.56;;;19.16;48.74
61039;BME280;46919;45.816;3.104;2023-08-08T09:19:19;98064.22;;;19.28;48.45
61039;BME280;46919;45.816;3.104;2023-08-08T09:21:45;98059.53;;;19.39;48.04
61039;BME280;46919;45.816;3.104;2023-08-08T09:24:11;98071.28;;;19.44;48.11
61039;BME280;46919;45.816;3.104;2023-08-08T09:26:39;98069.41;;;19.45;47.78
61039;BME280;46919;45.816;3.104;2023-08-08T09:29:04;98071.56;;;19.48;47.74
61039;BME280;46919;45.816;3.104;2023-08-08T09:31:31;98063.88;;;19.55;47.16
61039;BME280;46919;45.816;3.104;2023-08-08T09:33:58;98060.00;;;19.61;47.09
61039;BME280;46919;45.816;3.104;2023-08-08T09:36:24;98052.00;;;19.75;47.04
61039;BME280;46919;45.816;3.104;2023-08-08T09:38:49;98057.47;;;19.90;46.46
61039;BME280;46919;45.816;3.104;2023-08-08T09:41:15;98048.59;;;20.04;46.17
61039;BME280;46919;45.816;3.104;2023-08-08T09:43:43;98046.84;;;20.23;46.73
61039;BME280;46919;45.816;3.104;2023-08-08T09:46:09;98049.72;;;20.42;45.61
61039;BME280;46919;45.816;3.104;2023-08-08T09:48:35;98046.97;;;20.48;45.78
61039;BME280;46919;45.816;3.104;2023-08-08T09:51:02;98045.22;;;20.57;45.88
61039;BME280;46919;45.816;3.104;2023-08-08T09:53:29;98038.06;;;20.61;45.66
61039;BME280;46919;45.816;3.104;2023-08-08T09:55:56;98039.88;;;20.41;45.54
61039;BME280;46919;45.816;3.104;2023-08-08T09:58:22;98042.28;;;20.48;46.03
61039;BME280;46919;45.816;3.104;2023-08-08T10:00:51;98032.34;;;20.52;45.22
61039;BME280;46919;45.816;3.104;2023-08-08T10:03:18;98040.31;;;20.54;45.23
61039;BME280;46919;45.816;3.104;2023-08-08T10:05:45;98044.13;;;20.58;45.02
61039;BME280;46919;45.816;3.104;2023-08-08T10:08:11;98041.88;;;20.70;44.35
61039;BME280;46919;45.816;3.104;2023-08-08T10:10:37;98035.09;;;20.57;44.42
61039;BME280;46919;45.816;3.104;2023-08-08T10:13:04;98027.22;;;20.80;43.77
61039;BME280;46919;45.816;3.104;2023-08-08T10:15:30;98030.03;;;21.04;43.23
61039;BME280;46919;45.816;3.104;2023-08-08T10:17:57;98034.88;;;21.12;43.39
61039;BME280;46919;45.816;3.104;2023-08-08T10:20:25;98028.81;;;21.15;43.05
61039;BME280;46919;45.816;3.104;2023-08-08T10:22:53;98025.06;;;21.06;42.68
61039;BME280;46919;45.816;3.104;2023-08-08T10:25:24;98029.75;;;21.30;41.59
61039;BME280;46919;45.816;3.104;2023-08-08T10:28:10;98040.53;;;21.26;42.08
61039;BME280;46919;45.816;3.104;2023-08-08T10:30:55;98032.56;;;21.25;42.48
61039;BME280;46919;45.816;3.104;2023-08-08T10:33:26;98034.44;;;21.29;42.42
61039;BME280;46919;45.816;3.104;2023-08-08T10:36:03;98025.25;;;21.15;42.10
61039;BME280;46919;45.816;3.104;2023-08-08T10:38:49;98024.25;;;21.06;41.24
61039;BME280;46919;45.816;3.104;2023-08-08T10:41:19;98024.25;;;21.30;42.71
61039;BME280;46919;45.816;3.104;2023-08-08T10:43:53;98027.53;;;21.80;42.26
61039;BME280;46919;45.816;3.104;2023-08-08T10:46:30;98031.28;;;21.89;40.78
61039;BME280;46919;45.816;3.104;2023-08-08T10:49:05;98018.78;;;21.78;41.08
61039;BME280;46919;45.816;3.104;2023-08-08T10:51:37;98017.31;;;21.86;41.27
61039;BME280;46919;45.816;3.104;2023-08-08T10:54:06;98015.53;;;22.14;41.48
61039;BME280;46919;45.816;3.104;2023-08-08T10:56:35;98011.53;;;22.25;41.05
61039;BME280;46919;45.816;3.104;2023-08-08T10:59:13;98009.28;;;22.08;40.93
61039;BME280;46919;45.816;3.104;2023-08-08T11:01:38;98008.38;;;22.13;41.03
61039;BME280;46919;45.816;3.104;2023-08-08T11:04:05;98007.88;;;22.11;41.06
61039;BME280;46919;45.816;3.104;2023-08-08T11:06:32;98015.69;;;22.42;40.68
61039;BME280;46919;45.816;3.104;2023-08-08T11:08:58;98011.66;;;22.53;40.33
61039;BME280;46919;45.816;3.104;2023-08-08T11:11:23;98009.44;;;22.55;40.17
61039;BME280;46919;45.816;3.104;2023-08-08T11:13:51;98017.88;;;22.78;39.97
61039;BME280;46919;45.816;3.104;2023-08-08T11:16:17;98020.53;;;22.83;39.92
61039;BME280;46919;45.816;3.104;2023-08-08T11:18:43;98015.13;;;23.11;39.99
61039;BME280;46919;45.816;3.104;2023-08-08T11:21:12;98015.34;;;23.28;39.09
61039;BME280;46919;45.816;3.104;2023-08-08T11:23:37;98020.03;;;23.28;39.06
61039;BME280;46919;45.816;3.104;2023-08-08T11:26:04;98013.00;;;23.03;39.15
61039;BME280;46919;45.816;3.104;2023-08-08T11:28:29;98014.41;;;22.86;39.19
61039;BME280;46919;45.816;3.104;2023-08-08T11:30:55;98012.00;;;22.98;39.91
61039;BME280;46919;45.816;3.104;2023-08-08T11:33:21;98001.34;;;23.39;39.37
61039;BME280;46919;45.816;3.104;2023-08-08T11:35:47;97994.81;;;23.62;38.99
61039;BME280;46919;45.816;3.104;2023-08-08T11:38:14;97989.81;;;23.37;38.33
61039;BME280;46919;45.816;3.104;2023-08-08T11:40:41;97990.50;;;23.14;38.24
61039;BME280;46919;45.816;3.104;2023-08-08T11:43:06;97988.28;;;23.30;38.95
61039;BME280;46919;45.816;3.104;2023-08-08T11:45:33;97975.69;;;23.66;38.01
61039;BME280;46919;45.816;3.104;2023-08-08T11:47:59;97989.16;;;23.95;37.87
61039;BME280;46919;45.816;3.104;2023-08-08T11:50:25;97984.38;;;23.87;38.03
61039;BME280;46919;45.816;3.104;2023-08-08T11:52:53;97991.38;;;24.07;37.77
61039;BME280;46919;45.816;3.104;2023-08-08T11:55:20;97988.69;;;24.16;37.33
61039;BME280;46919;45.816;3.104;2023-08-08T11:57:49;97987.59;;;24.39;36.95
61039;BME280;46919;45.816;3.104;2023-08-08T12:00:15;97976.59;;;24.26;36.69
61039;BME280;46919;45.816;3.104;2023-08-08T12:02:44;97977.34;;;24.40;37.16
61039;BME280;46919;45.816;3.104;2023-08-08T12:05:14;97974.78;;;24.66;36.84
61039;BME280;46919;45.816;3.104;2023-08-08T12:07:43;97963.28;;;25.04;37.73
61039;BME280;46919;45.816;3.104;2023-08-08T12:10:15;97948.56;;;25.26;36.14
61039;BME280;46919;45.816;3.104;2023-08-08T12:12:44;97948.97;;;25.02;36.27
61039;BME280;46919;45.816;3.104;2023-08-08T12:15:10;97954.56;;;25.20;36.77
61039;BME280;46919;45.816;3.104;2023-08-08T12:17:36;97949.13;;;25.37;36.51
61039;BME280;46919;45.816;3.104;2023-08-08T12:20:07;97948.28;;;25.28;35.46
61039;BME280;46919;45.816;3.104;2023-08-08T12:22:33;97950.09;;;25.33;36.62
61039;BME280;46919;45.816;3.104;2023-08-08T12:24:59;97943.81;;;25.58;35.69
61039;BME280;46919;45.816;3.104;2023-08-08T12:27:25;97946.84;;;25.39;35.69
61039;BME280;46919;45.816;3.104;2023-08-08T12:29:50;97945.75;;;25.49;35.36
61039;BME280;46919;45.816;3.104;2023-08-08T12:32:19;97948.38;;;25.54;34.89
61039;BME280;46919;45.816;3.104;2023-08-08T12:34:44;97940.66;;;25.42;35.86
61039;BME280;46919;45.816;3.104;2023-08-08T12:37:10;97938.16;;;25.81;35.00
61039;BME280;46919;45.816;3.104;2023-08-08T12:39:35;97938.81;;;25.78;34.75
61039;BME280;46919;45.816;3.104;2023-08-08T12:42:00;97937.38;;;26.07;34.32
61039;BME280;46919;45.816;3.104;2023-08-08T12:44:26;97938.19;;;26.25;34.38
61039;BME280;46919;45.816;3.104;2023-08-08T12:46:51;97944.69;;;26.37;34.61
61039;BME280;46919;45.816;3.104;2023-08-08T12:49:17;97935.88;;;26.70;34.03
61039;BME280;46919;45.816;3.104;2023-08-08T12:51:42;97930.97;;;26.76;33.56
61039;BME280;46919;45.816;3.104;2023-08-08T12:54:07;97931.97;;;26.45;33.44
61039;BME280;46919;45.816;3.104;2023-08-08T12:56:33;97923.66;;;26.45;33.10
61039;BME280;46919;45.816;3.104;2023-08-08T12:58:58;97911.75;;;25.83;33.75
61039;BME280;46919;45.816;3.104;2023-08-08T13:01:24;97914.91;;;26.08;34.31